Time;durP1;ratioP1;P1;durP2;ratioP2;P2;SDS_P1;SDS_P2;PMS_P1;PMS_P2;Temp;Humidity;BMP_temperature;BMP_pressure;BME280_temperature;BME280_humidity;BME280_pressure;Samples;Min_cycle;Max_cycle;Signal;HPM_P1;HPM_P2
2023/07/01 00:00:27;;;;;;;5.60;3.75;;;20.70;99.90;;;;;;5071669;28;20200;-54
2023/07/01 00:02:54;;;;;;;6.45;4.28;;;20.70;99.90;;;;;;5071652;28;20204;-54
2023/07/01 00:05:21;;;;;;;5.63;3.90;;;20.60;99.90;;;;;;5071759;28;20739;-54
2023/07/01 00:07:48;;;;;;;7.20;3.60;;;20.60;99.90;;;;;;5070980;28;20310;-57
2023/07/01 00:10:15;;;;;;;6.28;3.60;;;20.50;99.90;;;;;;5071821;28;20283;-55
2023/07/01 00:12:41;;;;;;;8.52;3.85;;;20.40;99.90;;;;;;5071584;28;20229;-56
2023/07/01 00:15:10;;;;;;;5.35;3.00;;;20.30;99.90;;;;;;5071562;28;20233;-55
2023/07/01 00:17:37;;;;;;;4.38;3.25;;;20.20;99.90;;;;;;5071352;28;20262;-56
2023/07/01 00:20:04;;;;;;;6.13;2.95;;;20.10;99.90;;;;;;5071690;28;20258;-56
2023/07/01 00:22:30;;;;;;;3.50;2.90;;;20.10;99.90;;;;;;5071350;28;20205;-54
2023/07/01 00:24:57;;;;;;;4.03;2.50;;;19.90;99.90;;;;;;5071214;28;20708;-55
2023/07/01 00:27:24;;;;;;;4.85;2.70;;;19.90;99.90;;;;;;5071120;28;20699;-55
2023/07/01 00:29:50;;;;;;;5.82;2.55;;;19.80;99.90;;;;;;5071267;28;20722;-55
2023/07/01 00:32:18;;;;;;;5.35;2.80;;;19.80;99.90;;;;;;5071257;28;20627;-55
2023/07/01 00:34:45;;;;;;;3.83;2.60;;;19.70;99.90;;;;;;5070858;28;20251;-56
2023/07/01 00:37:12;;;;;;;3.47;2.45;;;19.60;99.90;;;;;;5070979;28;20212;-54
2023/07/01 00:39:39;;;;;;;4.32;2.45;;;19.60;99.90;;;;;;5071487;28;20618;-54
2023/07/01 00:42:06;;;;;;;2.53;2.00;;;19.50;99.90;;;;;;5071371;28;20213;-55
2023/07/01 00:44:32;;;;;;;3.85;2.17;;;19.40;99.90;;;;;;5071173;28;20204;-54
2023/07/01 00:47:00;;;;;;;6.30;2.53;;;19.40;99.90;;;;;;5070969;28;20213;-55
2023/07/01 00:49:28;;;;;;;2.72;2.13;;;19.30;99.90;;;;;;5070987;28;20287;-55
2023/07/01 00:51:56;;;;;;;8.35;3.17;;;19.30;99.90;;;;;;5071233;28;20231;-55
2023/07/01 00:54:22;;;;;;;2.50;2.00;;;19.30;99.90;;;;;;5071226;28;20225;-55
2023/07/01 00:56:49;;;;;;;3.22;2.22;;;19.20;99.90;;;;;;5074277;28;20233;-54
2023/07/01 00:59:16;;;;;;;2.92;2.10;;;19.10;99.90;;;;;;5075431;28;20254;-54
2023/07/01 01:01:49;;;;;;;2.72;2.22;;;19.10;99.90;;;;;;5075094;28;20212;-54
2023/07/01 01:04:23;;;;;;;3.65;1.88;;;19.00;99.90;;;;;;5074964;28;20201;-54
2023/07/01 01:06:58;;;;;;;2.97;2.22;;;19.00;99.90;;;;;;5074775;28;20220;-55
2023/07/01 01:09:31;;;;;;;3.95;2.08;;;18.90;99.90;;;;;;5075059;28;20211;-54
2023/07/01 01:11:59;;;;;;;3.67;2.00;;;18.80;99.90;;;;;;5075139;28;20205;-53
2023/07/01 01:14:27;;;;;;;4.40;2.38;;;18.80;99.90;;;;;;5074975;28;20282;-54
2023/07/01 01:16:55;;;;;;;3.25;2.50;;;18.70;99.90;;;;;;5074958;28;20229;-56
2023/07/01 01:19:30;;;;;;;5.22;3.28;;;18.70;99.90;;;;;;5074760;28;20592;-56
2023/07/01 01:22:09;;;;;;;4.28;2.50;;;18.60;99.90;;;;;;5074690;28;20215;-55
2023/07/01 01:24:41;;;;;;;3.40;2.08;;;18.50;99.90;;;;;;5074526;28;20627;-58
2023/07/01 01:27:12;;;;;;;4.95;2.10;;;18.50;99.90;;;;;;5074793;28;20189;-57
2023/07/01 01:29:40;;;;;;;3.95;2.00;;;18.40;99.90;;;;;;5074516;28;20211;-56
2023/07/01 01:32:08;;;;;;;6.40;2.10;;;18.30;99.90;;;;;;5074883;28;20220;-56
2023/07/01 01:34:34;;;;;;;3.95;2.25;;;18.30;99.90;;;;;;5074541;28;20315;-56
2023/07/01 01:37:05;;;;;;;4.57;2.08;;;18.20;99.90;;;;;;5074396;28;20742;-57
2023/07/01 01:39:36;;;;;;;3.10;1.85;;;18.20;99.90;;;;;;5074671;28;20235;-57
2023/07/01 01:42:09;;;;;;;3.53;1.90;;;18.10;99.90;;;;;;5074590;28;20204;-56
2023/07/01 01:44:45;;;;;;;4.68;2.25;;;18.10;99.90;;;;;;5074516;28;20284;-56
2023/07/01 01:47:16;;;;;;;5.07;2.20;;;18.00;99.90;;;;;;5073966;28;20641;-56
2023/07/01 01:49:43;;;;;;;4.03;1.90;;;18.00;99.90;;;;;;5074125;28;20208;-57
2023/07/01 01:52:14;;;;;;;3.63;2.20;;;17.90;99.90;;;;;;5074385;28;20300;-56
2023/07/01 01:54:42;;;;;;;5.10;2.40;;;17.90;99.90;;;;;;5073942;28;20224;-56
2023/07/01 01:57:09;;;;;;;3.00;1.80;;;17.80;99.90;;;;;;5073826;28;20239;-56
2023/07/01 01:59:36;;;;;;;3.60;2.10;;;17.80;99.90;;;;;;5073893;28;20254;-56
2023/07/01 02:02:02;;;;;;;2.55;2.20;;;17.70;99.90;;;;;;5073790;28;20688;-56
2023/07/01 02:04:30;;;;;;;4.53;1.90;;;17.60;99.90;;;;;;5073751;28;20243;-56
2023/07/01 02:06:57;;;;;;;6.05;2.10;;;17.60;99.90;;;;;;5072445;28;20333;-56
2023/07/01 02:09:24;;;;;;;4.22;2.20;;;17.50;99.90;;;;;;5073718;28;20665;-56
2023/07/01 02:11:50;;;;;;;3.10;2.00;;;17.50;99.90;;;;;;5073701;28;20301;-55
2023/07/01 02:14:17;;;;;;;2.80;2.08;;;17.50;99.90;;;;;;5073536;28;20590;-56
2023/07/01 02:16:44;;;;;;;2.63;2.08;;;17.50;99.90;;;;;;5073205;28;20233;-56
2023/07/01 02:19:11;;;;;;;3.78;2.00;;;17.40;99.90;;;;;;5073593;28;20205;-56
2023/07/01 02:21:39;;;;;;;3.70;1.75;;;17.30;99.90;;;;;;5073774;28;20273;-56
2023/07/01 02:24:06;;;;;;;2.67;2.00;;;17.30;99.90;;;;;;5073573;28;20262;-56
2023/07/01 02:26:33;;;;;;;3.40;2.20;;;17.30;99.90;;;;;;5073028;28;20232;-56
2023/07/01 02:28:59;;;;;;;4.97;2.30;;;17.30;99.90;;;;;;5073499;28;20216;-56
2023/07/01 02:31:26;;;;;;;5.22;2.08;;;17.20;99.90;;;;;;5073270;28;20212;-56
2023/07/01 02:33:55;;;;;;;2.58;1.95;;;17.20;99.90;;;;;;5073188;28;20286;-56
2023/07/01 02:36:22;;;;;;;4.47;2.20;;;17.20;99.90;;;;;;5073149;28;20239;-56
2023/07/01 02:38:49;;;;;;;5.03;2.22;;;17.10;99.90;;;;;;5073325;28;20209;-56
2023/07/01 02:41:16;;;;;;;3.63;2.55;;;17.10;99.90;;;;;;5073198;28;20220;-56
2023/07/01 02:43:43;;;;;;;3.83;2.45;;;17.10;99.90;;;;;;5073081;28;20201;-57
2023/07/01 02:46:09;;;;;;;3.40;2.38;;;17.00;99.90;;;;;;5072507;28;20232;-57
2023/07/01 02:48:36;;;;;;;6.03;2.50;;;17.00;99.90;;;;;;5073190;28;20213;-56
2023/07/01 02:51:03;;;;;;;2.90;2.15;;;16.90;99.90;;;;;;5073262;28;20209;-56
2023/07/01 02:53:30;;;;;;;6.05;2.45;;;16.90;99.90;;;;;;5072838;28;20220;-56
2023/07/01 02:55:59;;;;;;;2.63;2.22;;;16.90;99.90;;;;;;5072451;28;20236;-56
2023/07/01 02:58:25;;;;;;;2.88;2.22;;;16.80;99.90;;;;;;5072840;28;20213;-57
2023/07/01 03:00:52;;;;;;;4.38;2.35;;;16.80;99.90;;;;;;5072804;28;20216;-57
2023/07/01 03:03:19;;;;;;;4.60;2.75;;;16.80;99.90;;;;;;5072700;28;20216;-56
2023/07/01 03:05:45;;;;;;;4.85;2.65;;;16.80;99.90;;;;;;5072248;28;20543;-56
2023/07/01 03:08:12;;;;;;;3.63;2.80;;;16.70;99.90;;;;;;5072742;28;20212;-56
2023/07/01 03:10:39;;;;;;;5.72;2.60;;;16.70;99.90;;;;;;5072525;28;20201;-56
2023/07/01 03:13:07;;;;;;;4.60;2.70;;;16.70;99.90;;;;;;5072371;28;20616;-57
2023/07/01 03:15:33;;;;;;;4.75;2.40;;;16.60;99.90;;;;;;5072727;28;20244;-56
2023/07/01 03:18:00;;;;;;;6.07;2.75;;;16.60;99.90;;;;;;5072135;28;20208;-57
2023/07/01 03:20:27;;;;;;;6.80;2.80;;;16.50;99.90;;;;;;5072483;28;20205;-56
2023/07/01 03:22:56;;;;;;;4.97;3.20;;;16.40;99.90;;;;;;5072525;28;20648;-57
2023/07/01 03:25:23;;;;;;;8.70;3.13;;;16.40;99.90;;;;;;5072448;28;20647;-57
2023/07/01 03:27:50;;;;;;;6.30;2.90;;;16.30;99.90;;;;;;5071995;28;20208;-57
2023/07/01 03:30:19;;;;;;;6.50;2.70;;;16.30;99.90;;;;;;5072303;28;20205;-57
2023/07/01 03:32:47;;;;;;;4.22;2.72;;;16.30;99.90;;;;;;5072329;28;20201;-57
2023/07/01 03:35:15;;;;;;;5.57;2.53;;;16.20;99.90;;;;;;5071900;28;20228;-57
2023/07/01 03:37:43;;;;;;;6.38;3.03;;;16.20;99.90;;;;;;5071671;28;20303;-57
2023/07/01 03:40:11;;;;;;;6.75;2.67;;;16.20;99.90;;;;;;5071827;28;20224;-56
2023/07/01 03:42:38;;;;;;;4.32;2.88;;;16.20;99.90;;;;;;5071829;28;20263;-57
2023/07/01 03:45:06;;;;;;;6.60;2.70;;;16.20;99.90;;;;;;5071901;28;20668;-57
2023/07/01 03:47:34;;;;;;;8.33;2.83;;;16.20;99.90;;;;;;5071694;28;20205;-57
2023/07/01 03:50:00;;;;;;;5.25;2.67;;;16.10;99.90;;;;;;5071797;28;20209;-57
2023/07/01 03:52:27;;;;;;;5.50;2.58;;;16.10;99.90;;;;;;5071716;28;20266;-57
2023/07/01 03:54:54;;;;;;;6.07;2.55;;;16.20;99.90;;;;;;5071387;28;20670;-57
2023/07/01 03:57:20;;;;;;;3.83;2.50;;;16.20;99.90;;;;;;5071689;28;20213;-57
2023/07/01 03:59:47;;;;;;;4.30;3.40;;;16.20;99.90;;;;;;5071844;28;20215;-57
2023/07/01 04:02:14;;;;;;;6.00;2.38;;;16.30;99.90;;;;;;5071774;28;20609;-57
2023/07/01 04:04:42;;;;;;;10.65;2.90;;;16.20;99.90;;;;;;5071556;28;20208;-58
2023/07/01 04:07:09;;;;;;;3.70;3.25;;;16.20;99.90;;;;;;5071214;28;20209;-58
2023/07/01 04:09:35;;;;;;;4.05;2.90;;;16.20;99.90;;;;;;5071343;28;20669;-58
2023/07/01 04:12:02;;;;;;;2.50;2.25;;;16.30;99.90;;;;;;5071806;28;20321;-57
2023/07/01 04:14:29;;;;;;;5.05;2.42;;;16.40;99.90;;;;;;5071716;28;20248;-57
2023/07/01 04:16:56;;;;;;;7.95;2.60;;;16.40;99.90;;;;;;5071350;28;20647;-57
2023/07/01 04:19:22;;;;;;;5.18;2.90;;;16.40;99.90;;;;;;5071400;28;20676;-56
2023/07/01 04:21:50;;;;;;;5.90;2.70;;;16.50;99.90;;;;;;5071332;28;20201;-58
2023/07/01 04:24:17;;;;;;;4.68;2.72;;;16.60;99.90;;;;;;5071517;28;20201;-56
2023/07/01 04:26:44;;;;;;;4.45;2.35;;;16.70;99.90;;;;;;5070923;28;20705;-56
2023/07/01 04:29:11;;;;;;;3.60;2.60;;;16.70;99.90;;;;;;5071110;28;20299;-56
2023/07/01 04:31:38;;;;;;;4.65;2.42;;;16.80;99.90;;;;;;5070701;28;20215;-55
2023/07/01 04:34:05;;;;;;;3.85;2.60;;;16.90;99.90;;;;;;5071105;28;20708;-54
2023/07/01 04:36:31;;;;;;;7.10;2.33;;;16.90;99.90;;;;;;5070760;28;20225;-57
2023/07/01 04:38:59;;;;;;;6.70;2.55;;;16.90;99.90;;;;;;5071197;28;20205;-56
2023/07/01 04:41:26;;;;;;;5.53;2.40;;;17.00;99.90;;;;;;5071325;28;20209;-56
2023/07/01 04:43:53;;;;;;;4.57;3.08;;;17.00;99.90;;;;;;5070930;28;20554;-56
2023/07/01 04:46:20;;;;;;;5.90;2.58;;;17.10;99.90;;;;;;5070926;28;20313;-56
2023/07/01 04:48:47;;;;;;;8.02;2.67;;;17.20;99.90;;;;;;5070949;28;20559;-57
2023/07/01 04:51:13;;;;;;;6.63;2.75;;;17.50;99.90;;;;;;5070902;28;20278;-57
2023/07/01 04:53:40;;;;;;;4.40;2.38;;;18.30;99.90;;;;;;5071446;28;20209;-56
2023/07/01 04:56:08;;;;;;;4.43;2.15;;;19.30;99.90;;;;;;5070985;28;20236;-57
2023/07/01 04:58:35;;;;;;;2.42;1.90;;;20.50;99.90;;;;;;5071268;28;20215;-58
2023/07/01 05:01:01;;;;;;;5.40;2.25;;;21.80;99.90;;;;;;5071037;28;20669;-56
2023/07/01 05:03:28;;;;;;;4.40;2.10;;;23.00;99.90;;;;;;5071030;28;20212;-57
2023/07/01 05:05:55;;;;;;;2.97;2.40;;;23.90;99.90;;;;;;5070446;28;20221;-56
2023/07/01 05:08:21;;;;;;;3.97;2.13;;;24.80;99.90;;;;;;5071051;28;20258;-56
2023/07/01 05:10:48;;;;;;;6.18;2.30;;;25.60;99.90;;;;;;5070998;28;20337;-59
2023/07/01 05:13:16;;;;;;;3.80;1.95;;;26.20;99.90;;;;;;5070909;28;20263;-57
2023/07/01 05:15:43;;;;;;;4.38;2.00;;;26.70;99.90;;;;;;5070494;28;20279;-57
2023/07/01 05:18:10;;;;;;;3.25;2.00;;;27.20;99.50;;;;;;5070580;28;20255;-58
2023/07/01 05:20:37;;;;;;;5.47;2.15;;;27.70;98.30;;;;;;5070998;28;20205;-57
2023/07/01 05:23:03;;;;;;;4.28;2.40;;;28.30;95.80;;;;;;5070825;28;20201;-57
2023/07/01 05:25:30;;;;;;;4.53;2.20;;;28.70;94.70;;;;;;5070649;28;20221;-56
2023/07/01 05:27:57;;;;;;;4.65;1.88;;;29.20;92.80;;;;;;5070673;28;20673;-57
2023/07/01 05:30:25;;;;;;;4.47;2.58;;;29.80;91.60;;;;;;5070708;28;20205;-57
2023/07/01 05:32:51;;;;;;;6.00;2.35;;;30.30;90.00;;;;;;5070476;28;20201;-57
2023/07/01 05:35:18;;;;;;;7.30;2.40;;;30.60;88.00;;;;;;5070594;28;20326;-59
2023/07/01 05:37:45;;;;;;;3.55;2.03;;;31.30;85.20;;;;;;5070445;28;20250;-59
2023/07/01 05:40:12;;;;;;;5.20;3.20;;;31.80;79.80;;;;;;5070708;28;20212;-60
2023/07/01 05:42:39;;;;;;;8.70;7.80;;;32.20;78.50;;;;;;5073646;28;20295;-60
2023/07/01 05:45:07;;;;;;;2.67;1.92;;;32.70;76.60;;;;;;5074229;28;20224;-60
2023/07/01 05:47:35;;;;;;;7.65;3.50;;;33.50;72.80;;;;;;5073792;28;20238;-61
2023/07/01 05:50:02;;;;;;;4.40;2.05;;;34.30;69.30;;;;;;5074231;28;20209;-60
2023/07/01 05:52:28;;;;;;;15.68;6.00;;;35.00;66.10;;;;;;5074030;28;20604;-61
2023/07/01 05:54:55;;;;;;;2.72;1.95;;;35.50;64.00;;;;;;5073843;28;20244;-60
2023/07/01 05:57:22;;;;;;;1.90;1.70;;;36.00;61.50;;;;;;5073768;28;20209;-60
2023/07/01 05:59:49;;;;;;;3.50;1.75;;;36.20;60.80;;;;;;5073882;28;20213;-61
2023/07/01 06:02:16;;;;;;;2.10;1.60;;;36.60;59.40;;;;;;5074022;28;20205;-60
2023/07/01 06:04:44;;;;;;;5.35;2.72;;;37.10;57.20;;;;;;5073790;28;20291;-61
2023/07/01 06:07:11;;;;;;;4.45;1.88;;;37.50;54.90;;;;;;5073290;28;20695;-61
2023/07/01 06:09:37;;;;;;;4.00;1.80;;;37.60;54.20;;;;;;5073673;28;20208;-61
2023/07/01 06:12:05;;;;;;;2.28;1.83;;;37.60;54.50;;;;;;5073697;28;20209;-61
2023/07/01 06:14:31;;;;;;;5.22;1.55;;;37.90;52.80;;;;;;5073595;28;20212;-59
2023/07/01 06:16:58;;;;;;;5.13;1.92;;;38.20;52.90;;;;;;5073175;28;20233;-59
2023/07/01 06:19:25;;;;;;;6.18;1.85;;;38.40;52.00;;;;;;5073644;28;20205;-61
2023/07/01 06:21:53;;;;;;;3.70;1.63;;;38.80;51.30;;;;;;5073531;28;20270;-59
2023/07/01 06:24:19;;;;;;;3.40;1.65;;;39.00;49.70;;;;;;5073376;28;20701;-59
2023/07/01 06:26:46;;;;;;;9.10;8.07;;;39.40;49.20;;;;;;5073084;28;20252;-60
2023/07/01 06:29:13;;;;;;;5.60;2.42;;;39.60;47.90;;;;;;5073339;28;21181;-60
2023/07/01 06:31:39;;;;;;;5.65;4.97;;;39.70;47.70;;;;;;5073516;28;20403;-60
2023/07/01 06:34:12;;;;;;;4.47;3.10;;;39.30;48.40;;;;;;5073305;28;20602;-60
2023/07/01 06:36:39;;;;;;;3.83;1.85;;;39.00;49.20;;;;;;5072720;28;20323;-60
2023/07/01 06:39:07;;;;;;;1.88;1.60;;;39.20;46.70;;;;;;5073063;28;20685;-60
2023/07/01 06:41:34;;;;;;;3.40;1.70;;;39.60;46.00;;;;;;5072989;28;20204;-59
2023/07/01 06:44:00;;;;;;;5.05;2.45;;;39.70;45.50;;;;;;5073369;28;20209;-60
2023/07/01 06:46:27;;;;;;;3.28;1.73;;;39.40;45.70;;;;;;5073028;28;20228;-60
2023/07/01 06:48:54;;;;;;;3.72;1.80;;;39.50;44.10;;;;;;5073003;28;20219;-61
2023/07/01 06:51:21;;;;;;;2.05;1.45;;;39.70;44.40;;;;;;5072756;28;20262;-60
2023/07/01 06:53:48;;;;;;;4.50;2.05;;;40.00;43.60;;;;;;5072194;28;20295;-60
2023/07/01 06:56:16;;;;;;;5.72;1.70;;;40.00;43.10;;;;;;5072273;28;20229;-60
2023/07/01 06:58:42;;;;;;;4.10;1.90;;;40.30;42.90;;;;;;5072768;28;20205;-60
2023/07/01 07:01:09;;;;;;;2.75;1.70;;;40.60;42.10;;;;;;5072728;28;20208;-60
2023/07/01 07:03:39;;;;;;;7.15;1.60;;;40.60;41.90;;;;;;5072684;28;20208;-60
2023/07/01 07:06:07;;;;;;;5.03;1.50;;;40.70;40.90;;;;;;5072182;28;20228;-60
2023/07/01 07:08:33;;;;;;;3.67;1.70;;;40.90;41.50;;;;;;5072331;28;20208;-60
2023/07/01 07:11:00;;;;;;;2.85;1.40;;;41.00;40.50;;;;;;5072722;28;20204;-60
2023/07/01 07:13:28;;;;;;;6.88;3.53;;;41.30;40.50;;;;;;5072343;28;20557;-59
2023/07/01 07:15:55;;;;;;;4.05;1.52;;;41.80;39.10;;;;;;5072423;28;20224;-59
2023/07/01 07:18:21;;;;;;;2.38;1.38;;;41.20;39.90;;;;;;5072279;28;20207;-59
2023/07/01 07:20:48;;;;;;;4.53;2.05;;;41.20;39.20;;;;;;5071983;28;20200;-60
2023/07/01 07:23:15;;;;;;;2.35;1.70;;;41.40;39.30;;;;;;5072095;28;20204;-60
2023/07/01 07:25:42;;;;;;;4.47;1.42;;;41.40;38.50;;;;;;5072117;28;20228;-60
2023/07/01 07:28:08;;;;;;;5.32;1.60;;;41.00;38.70;;;;;;5072131;28;20208;-59
2023/07/01 07:30:37;;;;;;;3.05;1.25;;;40.70;39.00;;;;;;5072244;28;20262;-60
2023/07/01 07:33:04;;;;;;;2.50;1.52;;;40.50;38.70;;;;;;5072311;28;20619;-59
2023/07/01 07:35:30;;;;;;;3.65;1.40;;;40.30;38.90;;;;;;5071724;28;20228;-59
2023/07/01 07:37:57;;;;;;;4.40;1.05;;;39.90;39.10;;;;;;5071585;28;20208;-60
2023/07/01 07:40:23;;;;;;;4.43;1.25;;;40.20;38.80;;;;;;5072027;28;20203;-59
2023/07/01 07:42:53;;;;;;;2.58;1.25;;;39.90;39.40;;;;;;5071968;28;20207;-59
2023/07/01 07:45:21;;;;;;;3.65;1.58;;;40.20;39.70;;;;;;5072043;28;20234;-59
2023/07/01 07:47:49;;;;;;;2.40;1.30;;;40.40;39.70;;;;;;5071474;28;20200;-59
2023/07/01 07:50:20;;;;;;;4.47;1.67;;;40.80;38.80;;;;;;5071481;28;20215;-60
2023/07/01 07:52:47;;;;;;;4.28;1.52;;;40.90;38.30;;;;;;5072090;28;20331;-59
2023/07/01 07:55:13;;;;;;;3.50;1.63;;;41.00;38.20;;;;;;5071672;28;20220;-59
2023/07/01 07:57:40;;;;;;;3.38;1.35;;;41.10;37.00;;;;;;5071631;28;20672;-59
2023/07/01 08:00:08;;;;;;;3.25;1.40;;;40.30;38.10;;;;;;5071872;28;20211;-59
2023/07/01 08:02:37;;;;;;;4.45;1.33;;;40.30;38.00;;;;;;5071321;28;20219;-59
2023/07/01 08:05:06;;;;;;;5.53;1.88;;;40.20;38.40;;;;;;5070587;28;20240;-59
2023/07/01 08:07:32;;;;;;;4.50;1.45;;;40.70;38.20;;;;;;5071199;28;20587;-59
2023/07/01 08:09:59;;;;;;;3.67;1.60;;;41.30;37.60;;;;;;5071508;28;20624;-60
2023/07/01 08:12:26;;;;;;;3.22;1.10;;;41.80;37.20;;;;;;5071458;28;20589;-60
2023/07/01 08:14:52;;;;;;;2.03;1.30;;;41.90;36.80;;;;;;5071353;28;20605;-60
2023/07/01 08:17:19;;;;;;;4.07;1.30;;;41.70;36.50;;;;;;5071131;28;20216;-59
2023/07/01 08:19:46;;;;;;;5.97;1.50;;;41.00;37.10;;;;;;5071465;28;20275;-60
2023/07/01 08:22:14;;;;;;;2.45;1.20;;;40.50;38.20;;;;;;5071451;28;20253;-59
2023/07/01 08:24:41;;;;;;;3.03;1.63;;;39.70;38.50;;;;;;5071580;28;20205;-59
2023/07/01 08:27:07;;;;;;;6.45;1.60;;;39.10;39.00;;;;;;5071001;28;20604;-59
2023/07/01 08:29:34;;;;;;;3.47;1.75;;;39.20;39.40;;;;;;5071381;28;20209;-59
2023/07/01 08:32:01;;;;;;;3.42;1.42;;;38.80;39.90;;;;;;5071309;28;20212;-59
2023/07/01 08:34:28;;;;;;;3.25;1.33;;;38.00;40.70;;;;;;5071468;28;20209;-59
2023/07/01 08:36:54;;;;;;;2.15;1.23;;;37.90;41.10;;;;;;5070961;28;20233;-59
2023/07/01 08:39:24;;;;;;;8.68;1.10;;;37.90;40.40;;;;;;5071212;28;20208;-59
2023/07/01 08:41:56;;;;;;;3.28;1.40;;;37.40;40.80;;;;;;5071514;28;20209;-59
2023/07/01 08:44:23;;;;;;;5.15;1.35;;;36.90;41.40;;;;;;5070378;28;20671;-59
2023/07/01 08:46:53;;;;;;;2.28;1.38;;;36.70;41.90;;;;;;5070351;28;20233;-58
2023/07/01 08:49:23;;;;;;;2.00;1.30;;;36.80;42.20;;;;;;5071095;28;20213;-59
2023/07/01 08:51:52;;;;;;;6.32;1.25;;;36.90;42.30;;;;;;5071046;28;20220;-58
2023/07/01 08:54:20;;;;;;;2.22;1.60;;;36.70;42.20;;;;;;5070895;28;20257;-59
2023/07/01 08:56:49;;;;;;;2.28;1.45;;;36.20;43.00;;;;;;5070921;28;20225;-59
2023/07/01 08:59:17;;;;;;;4.38;1.52;;;35.50;44.40;;;;;;5071221;28;20291;-59
2023/07/01 09:01:44;;;;;;;4.00;1.38;;;34.70;44.70;;;;;;5071251;28;20205;-60
2023/07/01 09:04:11;;;;;;;3.22;1.67;;;34.00;45.20;;;;;;5071123;28;20239;-60
2023/07/01 09:06:38;;;;;;;8.40;2.03;;;33.30;46.60;;;;;;5070671;28;20332;-59
2023/07/01 09:09:06;;;;;;;3.83;1.60;;;32.70;47.70;;;;;;5070737;28;20613;-59
2023/07/01 09:11:35;;;;;;;4.32;1.67;;;32.10;49.40;;;;;;5070718;28;20549;-59
2023/07/01 09:14:03;;;;;;;4.22;1.92;;;31.70;50.00;;;;;;5070845;28;20255;-59
2023/07/01 09:16:32;;;;;;;3.30;1.67;;;31.30;50.10;;;;;;5071325;28;20668;-59
2023/07/01 09:19:06;;;;;;;5.05;1.77;;;31.10;51.00;;;;;;5074677;28;20201;-59
2023/07/01 09:21:33;;;;;;;2.15;1.45;;;30.90;52.30;;;;;;5074398;28;20625;-59
2023/07/01 09:24:00;;;;;;;4.75;1.65;;;30.60;51.50;;;;;;5074386;28;20287;-59
2023/07/01 09:26:30;;;;;;;2.45;1.58;;;30.40;51.30;;;;;;5074067;28;20253;-59
2023/07/01 09:28:58;;;;;;;2.33;1.75;;;30.40;51.40;;;;;;5074455;28;20205;-59
2023/07/01 09:31:26;;;;;;;3.92;1.60;;;30.40;52.20;;;;;;5074481;28;20665;-59
2023/07/01 09:34:01;;;;;;;3.85;1.63;;;30.30;51.90;;;;;;5074577;28;20262;-60
2023/07/01 09:36:30;;;;;;;3.03;1.50;;;30.30;51.70;;;;;;5073862;28;20234;-59
2023/07/01 09:38:57;;;;;;;3.20;1.65;;;30.40;52.10;;;;;;5074121;28;20304;-59
2023/07/01 09:41:26;;;;;;;2.55;1.83;;;30.40;51.80;;;;;;5074482;28;20656;-59
2023/07/01 09:43:54;;;;;;;3.78;1.60;;;30.50;51.00;;;;;;5074440;28;20260;-58
2023/07/01 09:46:21;;;;;;;3.80;1.52;;;30.30;50.70;;;;;;5073965;28;20712;-59
2023/07/01 09:48:53;;;;;;;1.65;1.48;;;30.20;50.50;;;;;;5074306;28;20583;-59
2023/07/01 09:51:20;;;;;;;2.85;1.70;;;30.00;51.60;;;;;;5073891;28;20668;-59
2023/07/01 09:53:47;;;;;;;4.18;1.75;;;30.00;51.30;;;;;;5073905;28;20205;-60
2023/07/01 09:56:16;;;;;;;8.85;1.90;;;29.80;50.00;;;;;;5073196;28;20624;-59
2023/07/01 09:58:43;;;;;;;2.65;1.67;;;29.60;49.90;;;;;;5074084;28;20463;-59
2023/07/01 10:01:12;;;;;;;4.93;1.60;;;29.50;49.70;;;;;;5073918;28;20669;-59
2023/07/01 10:03:39;;;;;;;2.47;1.73;;;29.40;50.50;;;;;;5073745;28;20200;-59
2023/07/01 10:06:07;;;;;;;1.75;1.40;;;29.40;50.50;;;;;;5073622;28;20587;-59
2023/07/01 10:08:34;;;;;;;3.67;1.95;;;29.30;50.80;;;;;;5074292;28;20582;-59
2023/07/01 10:11:05;;;;;;;2.55;1.67;;;29.20;50.40;;;;;;5074132;28;20296;-59
2023/07/01 10:13:37;;;;;;;4.43;2.10;;;29.10;50.70;;;;;;5074502;28;20318;-60
2023/07/01 10:16:06;;;;;;;8.27;2.40;;;28.90;51.90;;;;;;5073229;28;20233;-60
2023/07/01 10:18:33;;;;;;;2.05;1.63;;;28.70;51.40;;;;;;5073687;28;20204;-59
2023/07/01 10:21:30;;;;;;;2.80;1.75;;;28.60;50.90;;;;;;5073999;28;20212;-60
2023/07/01 10:23:59;;;;;;;2.85;1.73;;;28.50;51.40;;;;;;5074044;28;20660;-59
2023/07/01 10:26:43;;;;;;;3.22;1.77;;;28.50;52.20;;;;;;5072938;28;20225;-60
2023/07/01 10:29:38;;;;;;;3.95;1.80;;;28.70;50.50;;;;;;5072816;28;20201;-59
2023/07/01 10:32:33;;;;;;;4.07;2.13;;;28.90;50.90;;;;;;5072951;28;20216;-59
2023/07/01 10:35:14;;;;;;;4.15;2.60;;;29.10;49.60;;;;;;5073920;28;20255;-59
2023/07/01 10:37:44;;;;;;;5.35;2.20;;;29.30;48.60;;;;;;5074507;28;20221;-58
2023/07/01 10:40:42;;;;;;;2.80;2.22;;;29.40;47.40;;;;;;5074383;28;20255;-60
2023/07/01 10:43:25;;;;;;;3.28;2.50;;;29.60;46.60;;;;;;5073478;28;20568;-59
2023/07/01 10:46:20;;;;;;;7.18;2.75;;;30.10;46.10;;;;;;5072779;28;20316;-59
2023/07/01 10:49:07;;;;;;;3.40;2.40;;;30.50;46.10;;;;;;5073053;28;20204;-58
2023/07/01 10:52:05;;;;;;;3.10;2.63;;;30.80;46.50;;;;;;5073243;28;20208;-59
2023/07/01 10:54:35;;;;;;;9.10;3.35;;;31.10;45.70;;;;;;5073244;28;20201;-58
2023/07/01 10:57:13;;;;;;;30.15;4.97;;;31.10;46.30;;;;;;5072695;28;20723;-59
2023/07/01 10:59:40;;;;;;;8.13;3.53;;;30.90;46.60;;;;;;5072717;28;20200;-59
2023/07/01 11:02:09;;;;;;;7.45;2.50;;;30.80;46.70;;;;;;5073313;28;20278;-60
2023/07/01 11:05:04;;;;;;;3.35;2.00;;;30.70;46.40;;;;;;5072785;28;20209;-58
2023/07/01 11:07:31;;;;;;;3.95;2.97;;;30.70;46.80;;;;;;5065327;28;20205;-58
2023/07/01 11:09:59;;;;;;;3.92;2.70;;;30.60;46.30;;;;;;5073022;28;20224;-59
2023/07/01 11:12:27;;;;;;;2.72;2.22;;;30.60;47.00;;;;;;5073296;28;20220;-60
2023/07/01 11:14:54;;;;;;;5.70;2.40;;;30.80;47.10;;;;;;5073083;28;20665;-60
2023/07/01 11:17:23;;;;;;;5.88;2.30;;;31.00;46.90;;;;;;5072443;28;20224;-58
2023/07/01 11:19:54;;;;;;;2.90;2.20;;;31.20;47.60;;;;;;5073020;28;20588;-59
2023/07/01 11:22:21;;;;;;;4.82;2.92;;;31.20;47.00;;;;;;5073231;28;20303;-58
2023/07/01 11:24:48;;;;;;;2.65;2.20;;;31.30;46.80;;;;;;5072976;28;20209;-59
2023/07/01 11:27:17;;;;;;;4.63;2.50;;;31.50;47.10;;;;;;5073138;28;20290;-59
2023/07/01 11:29:47;;;;;;;2.40;2.10;;;31.90;46.80;;;;;;5073048;28;20235;-59
2023/07/01 11:32:14;;;;;;;2.13;1.92;;;31.90;47.00;;;;;;5073073;28;20287;-60
2023/07/01 11:34:41;;;;;;;2.33;2.00;;;32.00;46.00;;;;;;5072865;28;20205;-59
2023/07/01 11:37:08;;;;;;;3.50;2.10;;;32.10;46.20;;;;;;5072291;28;20270;-58
2023/07/01 11:39:44;;;;;;;3.25;1.80;;;32.50;46.40;;;;;;5072092;28;20204;-57
2023/07/01 11:42:11;;;;;;;4.68;1.85;;;32.50;46.40;;;;;;5072466;28;20204;-53
2023/07/01 11:44:39;;;;;;;3.47;1.77;;;32.40;45.60;;;;;;5072050;28;20278;-52
2023/07/01 11:47:11;;;;;;;3.80;2.03;;;32.40;45.60;;;;;;5071855;28;20240;-53
2023/07/01 11:49:39;;;;;;;6.35;2.10;;;32.30;45.90;;;;;;5071801;28;20201;-55
2023/07/01 11:52:07;;;;;;;4.72;2.60;;;32.30;46.20;;;;;;5071769;28;20204;-55
2023/07/01 11:54:45;;;;;;;4.47;2.25;;;32.10;45.80;;;;;;5072025;28;20243;-54
2023/07/01 11:57:13;;;;;;;2.67;1.98;;;31.90;46.60;;;;;;5071414;28;20228;-54
2023/07/01 11:59:43;;;;;;;2.88;2.00;;;31.70;46.30;;;;;;5071911;28;20258;-53
2023/07/01 12:02:10;;;;;;;3.55;2.10;;;31.60;46.60;;;;;;5071894;28;20208;-53
2023/07/01 12:04:37;;;;;;;4.97;2.00;;;31.70;46.10;;;;;;5071779;28;20615;-54
2023/07/01 12:07:08;;;;;;;4.05;2.20;;;31.70;46.20;;;;;;5071807;28;20799;-54
2023/07/01 12:09:35;;;;;;;3.95;2.20;;;31.80;46.70;;;;;;5071769;28;20227;-54
2023/07/01 12:12:02;;;;;;;4.93;2.92;;;32.00;46.80;;;;;;5071639;28;20262;-55
2023/07/01 12:14:29;;;;;;;6.55;2.20;;;31.90;46.40;;;;;;5071513;28;20212;-55
2023/07/01 12:16:57;;;;;;;6.00;2.33;;;31.90;46.60;;;;;;5071244;28;20232;-54
2023/07/01 12:19:25;;;;;;;3.58;2.17;;;32.00;46.10;;;;;;5071839;28;20388;-54
2023/07/01 12:21:53;;;;;;;3.00;2.40;;;32.10;45.60;;;;;;5071704;28;20230;-54
2023/07/01 12:24:21;;;;;;;2.42;2.00;;;32.00;45.40;;;;;;5071601;28;20209;-55
2023/07/01 12:26:48;;;;;;;3.55;2.40;;;32.00;45.80;;;;;;5071238;28;20785;-55
2023/07/01 12:29:16;;;;;;;3.70;2.50;;;31.90;46.50;;;;;;5071408;28;20201;-54
2023/07/01 12:31:42;;;;;;;2.03;1.80;;;32.00;47.00;;;;;;5071277;28;20212;-55
2023/07/01 12:34:11;;;;;;;4.28;2.13;;;32.00;48.30;;;;;;5071598;28;20200;-54
2023/07/01 12:36:37;;;;;;;6.93;2.55;;;31.80;48.50;;;;;;5070889;28;20693;-54
2023/07/01 12:39:05;;;;;;;4.03;1.75;;;31.70;49.00;;;;;;5071138;28;20239;-54
2023/07/01 12:41:33;;;;;;;1.70;1.60;;;31.70;49.20;;;;;;5071607;28;20205;-56
2023/07/01 12:44:00;;;;;;;4.55;2.22;;;31.40;49.80;;;;;;5071039;28;20266;-54
2023/07/01 12:46:27;;;;;;;4.75;1.90;;;31.40;49.60;;;;;;5070974;28;20286;-55
2023/07/01 12:48:54;;;;;;;8.15;2.60;;;31.50;50.00;;;;;;5071172;28;20223;-55
2023/07/01 12:51:22;;;;;;;2.67;2.40;;;31.50;49.40;;;;;;5071976;28;20554;-55